Nearby METAR Reports

 

EGTE - Exeter Airport, United Kingdom
Distance from station: S 19km
Updated: 25/09/2018 13:20
Few Clouds
Few Clouds
 Wind from SSW
Wind: SSW 19 km/h
Temperature: 18°C
Dew Point: 9°C
Humidity: 56%
Barometer: 1037 hPa
Clouds: Few Clouds
Visibility: 10 km
Cloud details: Few Clouds 1158 m
2018/09/25 12:20 EGTE 251220Z 20010KT 170V250 9999 FEW038 18/09 Q1037
EGDY - Yeovilton (navy), United Kingdom
Distance from station: ENE 55km
Updated: 25/09/2018 12:50
Partly cloudy
Partly cloudy
 Wind from SSE
Wind: SSE 13 km/h
Temperature: 17°C
Dew Point: 7°C
Humidity: 52%
Barometer: 1037 hPa
Clouds: Partly cloudy
Visibility: 10 km
Cloud details: Partly cloudy 1158 m
2018/09/25 11:50 EGDY 251150Z 16007KT 9999 SCT038 17/07 Q1037 BLU NOSIG
 
EGFF - Cardiff-Wales Ar, United Kingdom
Distance from station: N 56km
Updated: 25/09/2018 13:20
Clear
Clear
 Wind from ESE
Wind: ESE 7 km/h
Temperature: 15°C
Dew Point: 7°C
Humidity: 59%
Barometer: 1037 hPa
Clouds: Clear
Visibility: 10 km
2018/09/25 12:20 EGFF 251220Z AUTO 12004KT 9999 NCD 15/07 Q1037
EGDX - St Athan Raf, United Kingdom
Distance from station: N 58km
Updated: 25/09/2018 12:50
Clear
Clear
 Wind from ESE
Wind: ESE 7 km/h
Temperature: 15°C
Dew Point: 5°C
Humidity: 51%
Barometer: 1037 hPa
Summary: Clear
Visibility: greater than 10 km
2018/09/25 11:50 EGDX 251150Z 12004KT CAVOK 15/05 Q1037 BLU
 
EGGD - Bristol/Lulsgate, United Kingdom
Distance from station: NE 71km
Updated: 25/09/2018 13:20
Few Clouds
Few Clouds
 Wind from SSW
Wind: SSW 15 km/h
Temperature: 15°C
Dew Point: 7°C
Humidity: 59%
Barometer: 1037 hPa
Clouds: Few Clouds
Visibility: 10 km
Cloud details: Few Clouds 975 m
2018/09/25 12:20 EGGD 251220Z AUTO 20008KT 130V230 9999 FEW032/// 15/07 Q1037